Terminal Aerodrome Forecast
Issued by NWS

Home | Current Version | Previous Version | Text Only | Print | Product List | Glossary On
Versions: 1 2 3 4 5 6 7 8 9 10 11 12 13 14 15 16 17 18 19 20
000
FTUS43 KAPX 011100
TAFTVC
TAF
KTVC 011120Z 0112/0212 16003KT P6SM SCT090 SCT250
     FM011300 18010G20KT P6SM SCT040 SCT100
     FM011700 21013G25KT 6SM TSRA BKN050CB
     FM012100 22009G19KT P6SM VCSH OVC090
     FM020200 24005KT P6SM BKN050=

USA.gov is the U.S. government's official web portal to all federal, state and local government web resources and services.